sensor_id;sensor_type;location;lat;lon;timestamp;P1;durP1;ratioP1;P2;durP2;ratioP2
12601;SDS011;30282;16.436;99.370;2023-11-21T00:00:15;25.87;;;17.80;;
12601;SDS011;30282;16.436;99.370;2023-11-21T00:02:45;32.07;;;17.43;;
12601;SDS011;30282;16.436;99.370;2023-11-21T00:05:15;30.83;;;16.33;;
12601;SDS011;30282;16.436;99.370;2023-11-21T00:07:44;23.90;;;15.50;;
12601;SDS011;30282;16.436;99.370;2023-11-21T00:10:17;21.70;;;13.97;;
12601;SDS011;30282;16.436;99.370;2023-11-21T00:12:46;22.43;;;14.07;;
12601;SDS011;30282;16.436;99.370;2023-11-21T00:15:16;28.63;;;14.10;;
12601;SDS011;30282;16.436;99.370;2023-11-21T00:17:45;27.63;;;14.80;;
12601;SDS011;30282;16.436;99.370;2023-11-21T00:20:15;20.83;;;12.83;;
12601;SDS011;30282;16.436;99.370;2023-11-21T00:22:45;24.10;;;14.30;;
12601;SDS011;30282;16.436;99.370;2023-11-21T00:25:16;31.03;;;13.17;;
12601;SDS011;30282;16.436;99.370;2023-11-21T00:27:46;19.37;;;14.20;;
12601;SDS011;30282;16.436;99.370;2023-11-21T00:30:16;30.47;;;14.40;;
12601;SDS011;30282;16.436;99.370;2023-11-21T00:32:46;23.17;;;13.00;;
12601;SDS011;30282;16.436;99.370;2023-11-21T00:35:15;38.50;;;15.03;;
12601;SDS011;30282;16.436;99.370;2023-11-21T00:37:47;35.07;;;13.83;;
12601;SDS011;30282;16.436;99.370;2023-11-21T00:40:18;39.20;;;13.67;;
12601;SDS011;30282;16.436;99.370;2023-11-21T00:42:48;24.27;;;13.20;;
12601;SDS011;30282;16.436;99.370;2023-11-21T00:45:17;20.70;;;12.50;;
12601;SDS011;30282;16.436;99.370;2023-11-21T00:47:47;22.70;;;13.30;;
12601;SDS011;30282;16.436;99.370;2023-11-21T00:50:16;22.43;;;12.00;;
12601;SDS011;30282;16.436;99.370;2023-11-21T00:52:46;34.07;;;20.90;;
12601;SDS011;30282;16.436;99.370;2023-11-21T00:55:19;27.57;;;13.10;;
12601;SDS011;30282;16.436;99.370;2023-11-21T00:57:48;21.90;;;12.50;;
12601;SDS011;30282;16.436;99.370;2023-11-21T01:00:18;25.93;;;12.73;;
12601;SDS011;30282;16.436;99.370;2023-11-21T01:02:47;24.20;;;12.87;;
12601;SDS011;30282;16.436;99.370;2023-11-21T01:05:17;20.27;;;12.60;;
12601;SDS011;30282;16.436;99.370;2023-11-21T01:07:47;19.83;;;12.10;;
12601;SDS011;30282;16.436;99.370;2023-11-21T01:10:20;20.63;;;12.33;;
12601;SDS011;30282;16.436;99.370;2023-11-21T01:12:50;22.17;;;12.70;;
12601;SDS011;30282;16.436;99.370;2023-11-21T01:15:20;23.67;;;13.70;;
12601;SDS011;30282;16.436;99.370;2023-11-21T01:17:51;29.70;;;12.10;;
12601;SDS011;30282;16.436;99.370;2023-11-21T01:20:21;32.23;;;13.10;;
12601;SDS011;30282;16.436;99.370;2023-11-21T01:22:50;20.40;;;11.30;;
12601;SDS011;30282;16.436;99.370;2023-11-21T01:25:21;22.20;;;11.40;;
12601;SDS011;30282;16.436;99.370;2023-11-21T01:27:51;19.10;;;12.00;;
12601;SDS011;30282;16.436;99.370;2023-11-21T01:30:21;21.60;;;12.13;;
12601;SDS011;30282;16.436;99.370;2023-11-21T01:32:51;20.33;;;11.30;;
12601;SDS011;30282;16.436;99.370;2023-11-21T01:35:20;20.00;;;11.37;;
12601;SDS011;30282;16.436;99.370;2023-11-21T01:37:50;24.23;;;12.10;;
12601;SDS011;30282;16.436;99.370;2023-11-21T01:40:21;20.53;;;11.57;;
12601;SDS011;30282;16.436;99.370;2023-11-21T01:42:52;17.60;;;11.43;;
12601;SDS011;30282;16.436;99.370;2023-11-21T01:45:24;21.83;;;11.47;;
12601;SDS011;30282;16.436;99.370;2023-11-21T01:47:55;21.03;;;12.20;;
12601;SDS011;30282;16.436;99.370;2023-11-21T01:50:25;20.70;;;11.77;;
12601;SDS011;30282;16.436;99.370;2023-11-21T01:52:55;24.07;;;10.80;;
12601;SDS011;30282;16.436;99.370;2023-11-21T01:55:26;22.00;;;11.40;;
12601;SDS011;30282;16.436;99.370;2023-11-21T01:57:57;26.80;;;9.53;;
12601;SDS011;30282;16.436;99.370;2023-11-21T02:00:28;21.73;;;11.27;;
12601;SDS011;30282;16.436;99.370;2023-11-21T02:02:59;33.57;;;11.53;;
12601;SDS011;30282;16.436;99.370;2023-11-21T02:05:28;19.63;;;12.07;;
12601;SDS011;30282;16.436;99.370;2023-11-21T02:07:58;18.53;;;9.13;;
12601;SDS011;30282;16.436;99.370;2023-11-21T02:10:30;19.83;;;10.53;;
12601;SDS011;30282;16.436;99.370;2023-11-21T02:13:01;19.57;;;10.40;;
12601;SDS011;30282;16.436;99.370;2023-11-21T02:15:32;21.43;;;10.67;;
12601;SDS011;30282;16.436;99.370;2023-11-21T02:18:01;58.03;;;13.30;;
12601;SDS011;30282;16.436;99.370;2023-11-21T02:20:31;18.00;;;9.90;;
12601;SDS011;30282;16.436;99.370;2023-11-21T02:23:06;21.47;;;9.60;;
12601;SDS011;30282;16.436;99.370;2023-11-21T02:25:35;14.73;;;8.87;;
12601;SDS011;30282;16.436;99.370;2023-11-21T02:28:05;22.50;;;10.60;;
12601;SDS011;30282;16.436;99.370;2023-11-21T02:30:34;16.77;;;9.63;;
12601;SDS011;30282;16.436;99.370;2023-11-21T02:33:04;24.90;;;10.10;;
12601;SDS011;30282;16.436;99.370;2023-11-21T02:35:33;20.00;;;9.63;;
12601;SDS011;30282;16.436;99.370;2023-11-21T02:38:03;19.27;;;9.70;;
12601;SDS011;30282;16.436;99.370;2023-11-21T02:40:35;18.70;;;9.73;;
12601;SDS011;30282;16.436;99.370;2023-11-21T02:43:04;19.23;;;9.87;;
12601;SDS011;30282;16.436;99.370;2023-11-21T02:45:34;18.53;;;9.53;;
12601;SDS011;30282;16.436;99.370;2023-11-21T02:48:03;31.33;;;9.83;;
12601;SDS011;30282;16.436;99.370;2023-11-21T02:50:33;26.60;;;11.20;;
12601;SDS011;30282;16.436;99.370;2023-11-21T02:53:03;20.00;;;9.40;;
12601;SDS011;30282;16.436;99.370;2023-11-21T02:55:35;23.40;;;10.33;;
12601;SDS011;30282;16.436;99.370;2023-11-21T02:58:04;17.53;;;9.20;;
12601;SDS011;30282;16.436;99.370;2023-11-21T03:00:34;69.07;;;12.07;;
12601;SDS011;30282;16.436;99.370;2023-11-21T03:03:06;19.03;;;10.07;;
12601;SDS011;30282;16.436;99.370;2023-11-21T03:05:35;18.37;;;9.73;;
12601;SDS011;30282;16.436;99.370;2023-11-21T03:08:04;24.73;;;9.27;;
12601;SDS011;30282;16.436;99.370;2023-11-21T03:10:36;21.93;;;9.63;;
12601;SDS011;30282;16.436;99.370;2023-11-21T03:13:05;23.67;;;10.80;;
12601;SDS011;30282;16.436;99.370;2023-11-21T03:15:34;23.07;;;9.03;;
12601;SDS011;30282;16.436;99.370;2023-11-21T03:18:04;14.17;;;8.73;;
12601;SDS011;30282;16.436;99.370;2023-11-21T03:20:33;25.33;;;9.00;;
12601;SDS011;30282;16.436;99.370;2023-11-21T03:25:58;17.13;;;8.87;;
12601;SDS011;30282;16.436;99.370;2023-11-21T03:28:27;27.00;;;9.90;;
12601;SDS011;30282;16.436;99.370;2023-11-21T03:30:56;13.70;;;7.70;;
12601;SDS011;30282;16.436;99.370;2023-11-21T03:33:25;13.20;;;7.37;;
12601;SDS011;30282;16.436;99.370;2023-11-21T03:35:54;13.73;;;7.73;;
12601;SDS011;30282;16.436;99.370;2023-11-21T03:38:23;13.50;;;8.53;;
12601;SDS011;30282;16.436;99.370;2023-11-21T03:40:52;21.33;;;9.00;;
12601;SDS011;30282;16.436;99.370;2023-11-21T03:43:23;18.20;;;7.97;;
12601;SDS011;30282;16.436;99.370;2023-11-21T03:45:52;14.53;;;7.40;;
12601;SDS011;30282;16.436;99.370;2023-11-21T03:48:21;13.97;;;7.83;;
12601;SDS011;30282;16.436;99.370;2023-11-21T03:50:50;16.43;;;8.53;;
12601;SDS011;30282;16.436;99.370;2023-11-21T03:53:19;18.67;;;9.47;;
12601;SDS011;30282;16.436;99.370;2023-11-21T03:55:48;13.97;;;7.87;;
12601;SDS011;30282;16.436;99.370;2023-11-21T03:58:17;16.90;;;8.30;;
12601;SDS011;30282;16.436;99.370;2023-11-21T04:00:48;14.20;;;8.53;;
12601;SDS011;30282;16.436;99.370;2023-11-21T04:03:17;17.80;;;8.13;;
12601;SDS011;30282;16.436;99.370;2023-11-21T04:05:46;16.03;;;8.20;;
12601;SDS011;30282;16.436;99.370;2023-11-21T04:08:15;13.27;;;7.90;;
12601;SDS011;30282;16.436;99.370;2023-11-21T04:10:44;15.57;;;8.03;;
12601;SDS011;30282;16.436;99.370;2023-11-21T04:13:13;16.47;;;8.87;;
12601;SDS011;30282;16.436;99.370;2023-11-21T04:15:42;19.90;;;7.47;;
12601;SDS011;30282;16.436;99.370;2023-11-21T04:18:12;14.67;;;8.17;;
12601;SDS011;30282;16.436;99.370;2023-11-21T04:20:43;19.77;;;8.97;;
12601;SDS011;30282;16.436;99.370;2023-11-21T04:23:12;18.13;;;8.80;;
12601;SDS011;30282;16.436;99.370;2023-11-21T04:25:41;17.90;;;9.10;;
12601;SDS011;30282;16.436;99.370;2023-11-21T04:28:10;16.87;;;8.00;;
12601;SDS011;30282;16.436;99.370;2023-11-21T04:30:42;20.80;;;9.40;;
12601;SDS011;30282;16.436;99.370;2023-11-21T04:33:13;14.87;;;7.23;;
12601;SDS011;30282;16.436;99.370;2023-11-21T04:35:42;15.50;;;7.90;;
12601;SDS011;30282;16.436;99.370;2023-11-21T04:38:11;15.23;;;7.77;;
12601;SDS011;30282;16.436;99.370;2023-11-21T04:40:40;15.00;;;8.30;;
12601;SDS011;30282;16.436;99.370;2023-11-21T04:43:10;14.50;;;8.20;;
12601;SDS011;30282;16.436;99.370;2023-11-21T04:45:38;17.00;;;8.60;;
12601;SDS011;30282;16.436;99.370;2023-11-21T04:48:08;15.33;;;7.83;;
12601;SDS011;30282;16.436;99.370;2023-11-21T04:50:38;17.33;;;6.97;;
12601;SDS011;30282;16.436;99.370;2023-11-21T04:53:07;23.60;;;8.83;;
12601;SDS011;30282;16.436;99.370;2023-11-21T04:55:39;14.80;;;8.43;;
12601;SDS011;30282;16.436;99.370;2023-11-21T04:58:08;21.63;;;7.77;;
12601;SDS011;30282;16.436;99.370;2023-11-21T05:00:37;13.90;;;8.30;;
12601;SDS011;30282;16.436;99.370;2023-11-21T05:03:06;23.00;;;8.27;;
12601;SDS011;30282;16.436;99.370;2023-11-21T05:05:38;21.37;;;8.57;;
12601;SDS011;30282;16.436;99.370;2023-11-21T05:08:07;16.00;;;7.90;;
12601;SDS011;30282;16.436;99.370;2023-11-21T05:10:36;13.60;;;8.23;;
12601;SDS011;30282;16.436;99.370;2023-11-21T05:13:06;13.70;;;7.43;;
12601;SDS011;30282;16.436;99.370;2023-11-21T05:15:36;14.50;;;7.87;;
12601;SDS011;30282;16.436;99.370;2023-11-21T05:18:06;12.83;;;7.43;;
12601;SDS011;30282;16.436;99.370;2023-11-21T05:20:35;23.50;;;7.07;;
12601;SDS011;30282;16.436;99.370;2023-11-21T05:23:06;13.90;;;7.67;;
12601;SDS011;30282;16.436;99.370;2023-11-21T05:25:35;14.80;;;7.80;;
12601;SDS011;30282;16.436;99.370;2023-11-21T05:28:04;15.43;;;8.27;;
12601;SDS011;30282;16.436;99.370;2023-11-21T05:30:35;17.10;;;7.07;;
12601;SDS011;30282;16.436;99.370;2023-11-21T05:33:05;15.47;;;7.67;;
12601;SDS011;30282;16.436;99.370;2023-11-21T05:35:39;16.10;;;8.30;;
12601;SDS011;30282;16.436;99.370;2023-11-21T05:38:11;16.13;;;9.00;;
12601;SDS011;30282;16.436;99.370;2023-11-21T05:40:40;16.40;;;8.00;;
12601;SDS011;30282;16.436;99.370;2023-11-21T05:43:09;14.93;;;8.27;;
12601;SDS011;30282;16.436;99.370;2023-11-21T05:45:38;28.03;;;8.77;;
12601;SDS011;30282;16.436;99.370;2023-11-21T05:48:07;18.07;;;8.40;;
12601;SDS011;30282;16.436;99.370;2023-11-21T05:50:38;15.90;;;7.97;;
12601;SDS011;30282;16.436;99.370;2023-11-21T05:53:07;13.50;;;7.70;;
12601;SDS011;30282;16.436;99.370;2023-11-21T05:55:37;16.83;;;8.30;;
12601;SDS011;30282;16.436;99.370;2023-11-21T05:58:06;17.80;;;8.17;;
12601;SDS011;30282;16.436;99.370;2023-11-21T06:00:35;15.80;;;9.17;;
12601;SDS011;30282;16.436;99.370;2023-11-21T06:03:04;20.13;;;8.30;;
12601;SDS011;30282;16.436;99.370;2023-11-21T06:05:33;17.47;;;8.23;;
12601;SDS011;30282;16.436;99.370;2023-11-21T06:08:05;13.73;;;8.50;;
12601;SDS011;30282;16.436;99.370;2023-11-21T06:10:34;16.87;;;8.20;;
12601;SDS011;30282;16.436;99.370;2023-11-21T06:13:03;12.83;;;7.80;;
12601;SDS011;30282;16.436;99.370;2023-11-21T06:15:33;15.20;;;7.90;;
12601;SDS011;30282;16.436;99.370;2023-11-21T06:18:02;16.43;;;8.50;;
12601;SDS011;30282;16.436;99.370;2023-11-21T06:20:35;18.70;;;9.40;;
12601;SDS011;30282;16.436;99.370;2023-11-21T06:23:06;19.93;;;9.90;;
12601;SDS011;30282;16.436;99.370;2023-11-21T06:25:35;19.97;;;8.70;;
12601;SDS011;30282;16.436;99.370;2023-11-21T06:28:05;21.53;;;9.00;;
12601;SDS011;30282;16.436;99.370;2023-11-21T06:30:34;19.30;;;10.70;;
12601;SDS011;30282;16.436;99.370;2023-11-21T06:33:03;16.10;;;9.90;;
12601;SDS011;30282;16.436;99.370;2023-11-21T06:35:33;23.73;;;11.63;;
12601;SDS011;30282;16.436;99.370;2023-11-21T06:38:02;25.23;;;14.00;;
12601;SDS011;30282;16.436;99.370;2023-11-21T06:40:32;22.77;;;11.93;;
12601;SDS011;30282;16.436;99.370;2023-11-21T06:43:01;32.53;;;18.57;;
12601;SDS011;30282;16.436;99.370;2023-11-21T06:45:32;25.67;;;16.60;;
12601;SDS011;30282;16.436;99.370;2023-11-21T06:48:01;26.10;;;11.60;;
12601;SDS011;30282;16.436;99.370;2023-11-21T06:50:30;24.90;;;15.83;;
12601;SDS011;30282;16.436;99.370;2023-11-21T06:52:59;24.83;;;14.30;;
12601;SDS011;30282;16.436;99.370;2023-11-21T06:55:29;19.13;;;11.17;;
12601;SDS011;30282;16.436;99.370;2023-11-21T06:58:01;19.73;;;10.30;;
12601;SDS011;30282;16.436;99.370;2023-11-21T07:00:30;16.07;;;8.57;;
12601;SDS011;30282;16.436;99.370;2023-11-21T07:02:59;19.73;;;9.03;;
12601;SDS011;30282;16.436;99.370;2023-11-21T07:05:28;31.77;;;15.13;;
12601;SDS011;30282;16.436;99.370;2023-11-21T07:07:57;13.33;;;8.13;;
12601;SDS011;30282;16.436;99.370;2023-11-21T07:10:30;15.80;;;9.93;;
12601;SDS011;30282;16.436;99.370;2023-11-21T07:13:03;20.77;;;12.93;;
12601;SDS011;30282;16.436;99.370;2023-11-21T07:15:32;29.47;;;14.03;;
12601;SDS011;30282;16.436;99.370;2023-11-21T07:18:01;17.03;;;10.50;;
12601;SDS011;30282;16.436;99.370;2023-11-21T07:20:33;31.30;;;19.93;;
12601;SDS011;30282;16.436;99.370;2023-11-21T07:23:02;22.80;;;9.90;;
12601;SDS011;30282;16.436;99.370;2023-11-21T07:25:33;16.37;;;8.30;;
12601;SDS011;30282;16.436;99.370;2023-11-21T07:28:02;13.27;;;8.17;;
12601;SDS011;30282;16.436;99.370;2023-11-21T07:30:31;17.57;;;9.33;;
12601;SDS011;30282;16.436;99.370;2023-11-21T07:33:03;15.90;;;8.63;;
12601;SDS011;30282;16.436;99.370;2023-11-21T07:35:33;26.23;;;14.60;;
12601;SDS011;30282;16.436;99.370;2023-11-21T07:38:02;26.63;;;12.10;;
12601;SDS011;30282;16.436;99.370;2023-11-21T07:40:33;24.40;;;12.77;;
12601;SDS011;30282;16.436;99.370;2023-11-21T07:43:02;22.50;;;11.70;;
12601;SDS011;30282;16.436;99.370;2023-11-21T07:45:31;23.70;;;12.43;;
12601;SDS011;30282;16.436;99.370;2023-11-21T07:48:00;42.27;;;26.50;;
12601;SDS011;30282;16.436;99.370;2023-11-21T07:50:30;47.00;;;26.40;;
12601;SDS011;30282;16.436;99.370;2023-11-21T07:52:59;40.33;;;25.80;;
12601;SDS011;30282;16.436;99.370;2023-11-21T07:55:35;31.37;;;20.30;;
12601;SDS011;30282;16.436;99.370;2023-11-21T07:58:04;29.20;;;13.73;;
12601;SDS011;30282;16.436;99.370;2023-11-21T08:00:33;27.27;;;16.50;;
12601;SDS011;30282;16.436;99.370;2023-11-21T08:03:05;21.50;;;14.90;;
12601;SDS011;30282;16.436;99.370;2023-11-21T08:05:34;29.97;;;14.70;;
12601;SDS011;30282;16.436;99.370;2023-11-21T08:08:03;30.13;;;13.53;;
12601;SDS011;30282;16.436;99.370;2023-11-21T08:10:32;34.23;;;14.77;;
12601;SDS011;30282;16.436;99.370;2023-11-21T08:13:03;30.50;;;13.73;;
12601;SDS011;30282;16.436;99.370;2023-11-21T08:15:34;34.07;;;15.43;;
12601;SDS011;30282;16.436;99.370;2023-11-21T08:18:04;23.60;;;13.80;;
12601;SDS011;30282;16.436;99.370;2023-11-21T08:20:33;24.73;;;11.40;;
12601;SDS011;30282;16.436;99.370;2023-11-21T08:23:04;22.20;;;11.93;;
12601;SDS011;30282;16.436;99.370;2023-11-21T08:25:33;26.77;;;13.60;;
12601;SDS011;30282;16.436;99.370;2023-11-21T08:28:03;22.33;;;13.10;;
12601;SDS011;30282;16.436;99.370;2023-11-21T08:30:32;34.20;;;15.10;;
12601;SDS011;30282;16.436;99.370;2023-11-21T08:33:01;35.07;;;14.77;;
12601;SDS011;30282;16.436;99.370;2023-11-21T08:35:31;45.93;;;26.30;;
12601;SDS011;30282;16.436;99.370;2023-11-21T08:38:03;28.83;;;17.63;;
12601;SDS011;30282;16.436;99.370;2023-11-21T08:40:32;33.43;;;20.50;;
12601;SDS011;30282;16.436;99.370;2023-11-21T08:43:03;33.33;;;18.50;;
12601;SDS011;30282;16.436;99.370;2023-11-21T08:45:34;22.63;;;12.43;;
12601;SDS011;30282;16.436;99.370;2023-11-21T08:48:03;22.17;;;12.50;;
12601;SDS011;30282;16.436;99.370;2023-11-21T08:50:35;23.07;;;13.70;;
12601;SDS011;30282;16.436;99.370;2023-11-21T08:53:04;19.30;;;10.47;;
12601;SDS011;30282;16.436;99.370;2023-11-21T08:55:35;19.40;;;9.60;;
12601;SDS011;30282;16.436;99.370;2023-11-21T08:58:04;16.73;;;9.80;;
12601;SDS011;30282;16.436;99.370;2023-11-21T09:00:33;48.13;;;10.30;;
12601;SDS011;30282;16.436;99.370;2023-11-21T09:03:02;16.37;;;10.50;;
12601;SDS011;30282;16.436;99.370;2023-11-21T09:05:34;17.83;;;9.60;;
12601;SDS011;30282;16.436;99.370;2023-11-21T09:08:06;19.13;;;9.37;;
12601;SDS011;30282;16.436;99.370;2023-11-21T09:10:36;18.57;;;9.70;;
12601;SDS011;30282;16.436;99.370;2023-11-21T09:13:05;15.93;;;9.30;;
12601;SDS011;30282;16.436;99.370;2023-11-21T09:15:35;23.33;;;13.27;;
12601;SDS011;30282;16.436;99.370;2023-11-21T09:18:05;32.23;;;12.50;;
12601;SDS011;30282;16.436;99.370;2023-11-21T09:20:34;17.90;;;11.03;;
12601;SDS011;30282;16.436;99.370;2023-11-21T09:23:03;25.70;;;12.10;;
12601;SDS011;30282;16.436;99.370;2023-11-21T09:25:32;23.67;;;15.17;;
12601;SDS011;30282;16.436;99.370;2023-11-21T09:28:04;45.97;;;24.30;;
12601;SDS011;30282;16.436;99.370;2023-11-21T09:30:35;52.67;;;25.30;;
12601;SDS011;30282;16.436;99.370;2023-11-21T09:33:04;30.20;;;14.13;;
12601;SDS011;30282;16.436;99.370;2023-11-21T09:35:36;33.50;;;14.90;;
12601;SDS011;30282;16.436;99.370;2023-11-21T09:38:05;27.20;;;14.73;;
12601;SDS011;30282;16.436;99.370;2023-11-21T09:40:36;59.20;;;16.03;;
12601;SDS011;30282;16.436;99.370;2023-11-21T09:43:08;181.47;;;18.50;;
12601;SDS011;30282;16.436;99.370;2023-11-21T09:45:44;38.43;;;14.10;;
12601;SDS011;30282;16.436;99.370;2023-11-21T09:48:16;37.97;;;12.73;;
12601;SDS011;30282;16.436;99.370;2023-11-21T09:50:46;19.23;;;11.20;;
12601;SDS011;30282;16.436;99.370;2023-11-21T09:53:17;19.20;;;11.00;;
12601;SDS011;30282;16.436;99.370;2023-11-21T09:55:47;34.13;;;12.20;;
12601;SDS011;30282;16.436;99.370;2023-11-21T09:58:19;40.70;;;12.43;;
12601;SDS011;30282;16.436;99.370;2023-11-21T10:00:52;34.50;;;13.63;;
12601;SDS011;30282;16.436;99.370;2023-11-21T10:03:23;25.53;;;13.20;;
12601;SDS011;30282;16.436;99.370;2023-11-21T10:05:52;24.10;;;13.83;;
12601;SDS011;30282;16.436;99.370;2023-11-21T10:08:26;38.27;;;19.83;;
12601;SDS011;30282;16.436;99.370;2023-11-21T10:10:57;31.67;;;15.90;;
12601;SDS011;30282;16.436;99.370;2023-11-21T10:13:29;33.20;;;14.30;;
12601;SDS011;30282;16.436;99.370;2023-11-21T10:16:00;27.90;;;16.57;;
12601;SDS011;30282;16.436;99.370;2023-11-21T10:18:31;23.20;;;15.33;;
12601;SDS011;30282;16.436;99.370;2023-11-21T10:21:03;24.93;;;16.40;;
12601;SDS011;30282;16.436;99.370;2023-11-21T10:23:33;22.70;;;14.73;;
12601;SDS011;30282;16.436;99.370;2023-11-21T10:26:02;28.57;;;12.87;;
12601;SDS011;30282;16.436;99.370;2023-11-21T10:28:37;19.33;;;13.87;;
12601;SDS011;30282;16.436;99.370;2023-11-21T10:31:06;24.00;;;13.40;;
12601;SDS011;30282;16.436;99.370;2023-11-21T10:33:35;28.03;;;13.80;;
12601;SDS011;30282;16.436;99.370;2023-11-21T10:36:05;26.10;;;12.63;;
12601;SDS011;30282;16.436;99.370;2023-11-21T10:38:42;32.83;;;14.93;;
12601;SDS011;30282;16.436;99.370;2023-11-21T10:41:16;31.57;;;15.70;;
12601;SDS011;30282;16.436;99.370;2023-11-21T10:43:48;37.30;;;17.07;;
12601;SDS011;30282;16.436;99.370;2023-11-21T10:46:20;61.47;;;34.70;;
12601;SDS011;30282;16.436;99.370;2023-11-21T10:48:54;65.93;;;31.50;;
12601;SDS011;30282;16.436;99.370;2023-11-21T10:51:24;54.50;;;33.60;;
12601;SDS011;30282;16.436;99.370;2023-11-21T10:53:54;140.53;;;85.00;;
12601;SDS011;30282;16.436;99.370;2023-11-21T10:56:24;239.77;;;145.37;;
12601;SDS011;30282;16.436;99.370;2023-11-21T10:58:57;228.97;;;138.47;;
12601;SDS011;30282;16.436;99.370;2023-11-21T11:01:26;194.97;;;114.93;;
12601;SDS011;30282;16.436;99.370;2023-11-21T11:03:58;173.63;;;97.97;;
12601;SDS011;30282;16.436;99.370;2023-11-21T11:06:28;109.40;;;62.20;;
12601;SDS011;30282;16.436;99.370;2023-11-21T11:08:58;74.03;;;39.07;;
12601;SDS011;30282;16.436;99.370;2023-11-21T11:11:30;57.80;;;34.23;;
12601;SDS011;30282;16.436;99.370;2023-11-21T11:14:01;74.97;;;43.83;;
12601;SDS011;30282;16.436;99.370;2023-11-21T11:16:30;47.50;;;28.43;;
12601;SDS011;30282;16.436;99.370;2023-11-21T11:19:00;41.03;;;25.57;;
12601;SDS011;30282;16.436;99.370;2023-11-21T11:21:31;36.17;;;19.73;;
12601;SDS011;30282;16.436;99.370;2023-11-21T11:24:27;29.10;;;19.20;;
12601;SDS011;30282;16.436;99.370;2023-11-21T11:27:14;85.93;;;37.00;;
12601;SDS011;30282;16.436;99.370;2023-11-21T11:29:55;88.97;;;34.00;;
12601;SDS011;30282;16.436;99.370;2023-11-21T11:32:33;61.27;;;30.17;;
12601;SDS011;30282;16.436;99.370;2023-11-21T11:35:12;83.57;;;37.07;;
12601;SDS011;30282;16.436;99.370;2023-11-21T11:37:47;69.17;;;33.47;;
12601;SDS011;30282;16.436;99.370;2023-11-21T11:40:16;64.83;;;32.80;;
12601;SDS011;30282;16.436;99.370;2023-11-21T11:42:56;71.13;;;31.87;;
12601;SDS011;30282;16.436;99.370;2023-11-21T11:45:31;59.23;;;27.60;;
12601;SDS011;30282;16.436;99.370;2023-11-21T11:48:07;59.37;;;35.20;;
12601;SDS011;30282;16.436;99.370;2023-11-21T11:50:42;68.50;;;36.13;;
12601;SDS011;30282;16.436;99.370;2023-11-21T11:53:25;96.10;;;51.60;;
12601;SDS011;30282;16.436;99.370;2023-11-21T11:56:14;77.73;;;43.63;;
12601;SDS011;30282;16.436;99.370;2023-11-21T11:58:51;94.07;;;47.23;;
12601;SDS011;30282;16.436;99.370;2023-11-21T12:01:24;69.00;;;34.87;;
12601;SDS011;30282;16.436;99.370;2023-11-21T12:07:02;64.27;;;35.00;;
12601;SDS011;30282;16.436;99.370;2023-11-21T12:09:32;60.63;;;34.43;;
12601;SDS011;30282;16.436;99.370;2023-11-21T12:12:01;67.77;;;34.10;;
12601;SDS011;30282;16.436;99.370;2023-11-21T12:14:32;55.10;;;30.03;;
12601;SDS011;30282;16.436;99.370;2023-11-21T12:17:06;49.73;;;29.10;;
12601;SDS011;30282;16.436;99.370;2023-11-21T12:19:35;47.80;;;25.83;;
12601;SDS011;30282;16.436;99.370;2023-11-21T12:22:05;38.73;;;23.93;;
12601;SDS011;30282;16.436;99.370;2023-11-21T12:24:34;34.03;;;22.93;;
12601;SDS011;30282;16.436;99.370;2023-11-21T12:27:03;41.27;;;24.27;;
12601;SDS011;30282;16.436;99.370;2023-11-21T12:29:32;35.10;;;20.93;;
12601;SDS011;30282;16.436;99.370;2023-11-21T12:32:03;42.13;;;25.40;;
12601;SDS011;30282;16.436;99.370;2023-11-21T12:34:34;39.33;;;22.60;;
12601;SDS011;30282;16.436;99.370;2023-11-21T12:37:04;42.67;;;23.37;;
12601;SDS011;30282;16.436;99.370;2023-11-21T12:39:33;34.23;;;19.70;;
12601;SDS011;30282;16.436;99.370;2023-11-21T12:42:03;32.80;;;17.83;;
12601;SDS011;30282;16.436;99.370;2023-11-21T12:44:32;30.23;;;16.70;;
12601;SDS011;30282;16.436;99.370;2023-11-21T12:47:03;34.53;;;18.50;;
12601;SDS011;30282;16.436;99.370;2023-11-21T12:49:34;33.93;;;17.47;;
12601;SDS011;30282;16.436;99.370;2023-11-21T12:52:04;30.80;;;16.70;;
12601;SDS011;30282;16.436;99.370;2023-11-21T12:54:34;29.40;;;15.10;;
12601;SDS011;30282;16.436;99.370;2023-11-21T12:57:04;25.67;;;12.77;;
12601;SDS011;30282;16.436;99.370;2023-11-21T12:59:34;23.70;;;13.80;;
12601;SDS011;30282;16.436;99.370;2023-11-21T13:02:05;23.90;;;14.57;;
12601;SDS011;30282;16.436;99.370;2023-11-21T13:04:38;25.33;;;11.50;;
12601;SDS011;30282;16.436;99.370;2023-11-21T13:07:07;23.63;;;12.23;;
12601;SDS011;30282;16.436;99.370;2023-11-21T13:09:40;27.97;;;11.97;;
12601;SDS011;30282;16.436;99.370;2023-11-21T13:12:09;21.70;;;12.67;;
12601;SDS011;30282;16.436;99.370;2023-11-21T13:14:39;20.67;;;11.67;;
12601;SDS011;30282;16.436;99.370;2023-11-21T13:17:08;23.57;;;12.70;;
12601;SDS011;30282;16.436;99.370;2023-11-21T13:19:40;20.93;;;11.23;;
12601;SDS011;30282;16.436;99.370;2023-11-21T13:22:09;23.97;;;11.50;;
12601;SDS011;30282;16.436;99.370;2023-11-21T13:24:38;19.60;;;11.93;;
12601;SDS011;30282;16.436;99.370;2023-11-21T13:27:07;22.03;;;11.37;;
12601;SDS011;30282;16.436;99.370;2023-11-21T13:29:36;19.70;;;12.40;;
12601;SDS011;30282;16.436;99.370;2023-11-21T13:32:05;19.33;;;11.70;;
12601;SDS011;30282;16.436;99.370;2023-11-21T13:34:37;20.80;;;12.30;;
12601;SDS011;30282;16.436;99.370;2023-11-21T13:37:10;22.30;;;11.93;;
12601;SDS011;30282;16.436;99.370;2023-11-21T13:39:39;27.20;;;12.43;;
12601;SDS011;30282;16.436;99.370;2023-11-21T13:42:11;23.20;;;11.70;;
12601;SDS011;30282;16.436;99.370;2023-11-21T13:44:42;25.53;;;13.23;;
12601;SDS011;30282;16.436;99.370;2023-11-21T13:47:13;31.03;;;12.40;;
12601;SDS011;30282;16.436;99.370;2023-11-21T13:49:44;21.60;;;12.00;;
12601;SDS011;30282;16.436;99.370;2023-11-21T13:52:13;23.20;;;12.20;;
12601;SDS011;30282;16.436;99.370;2023-11-21T13:54:45;25.50;;;12.83;;
12601;SDS011;30282;16.436;99.370;2023-11-21T13:57:14;21.70;;;13.20;;
12601;SDS011;30282;16.436;99.370;2023-11-21T13:59:44;21.83;;;12.77;;
12601;SDS011;30282;16.436;99.370;2023-11-21T14:02:17;26.40;;;13.90;;
12601;SDS011;30282;16.436;99.370;2023-11-21T14:04:52;24.50;;;14.20;;
12601;SDS011;30282;16.436;99.370;2023-11-21T14:07:25;22.10;;;13.87;;
12601;SDS011;30282;16.436;99.370;2023-11-21T14:10:01;26.80;;;14.50;;
12601;SDS011;30282;16.436;99.370;2023-11-21T14:12:32;27.10;;;14.33;;
12601;SDS011;30282;16.436;99.370;2023-11-21T14:15:03;21.43;;;12.70;;
12601;SDS011;30282;16.436;99.370;2023-11-21T14:17:35;27.10;;;14.80;;
12601;SDS011;30282;16.436;99.370;2023-11-21T14:20:08;24.87;;;14.40;;
12601;SDS011;30282;16.436;99.370;2023-11-21T14:22:41;26.83;;;15.00;;
12601;SDS011;30282;16.436;99.370;2023-11-21T14:25:11;24.93;;;13.57;;
12601;SDS011;30282;16.436;99.370;2023-11-21T14:27:42;24.50;;;14.40;;
12601;SDS011;30282;16.436;99.370;2023-11-21T14:30:16;31.40;;;15.27;;
12601;SDS011;30282;16.436;99.370;2023-11-21T14:32:48;27.40;;;16.00;;
12601;SDS011;30282;16.436;99.370;2023-11-21T14:35:19;23.40;;;15.63;;
12601;SDS011;30282;16.436;99.370;2023-11-21T14:37:48;22.90;;;15.00;;